<?xml version="1.0" encoding="UTF-8" standalone="no" ?>
<gpx xmlns="http://www.topografix.com/GPX/1/1" xmlns:xsi="http://www.w3.org/2001/XMLSchema-instance" xsi:schemaLocation="http://www.topografix.com/GPX/1/1 http://www.topografix.com/GPX/1/1/gpx.xsd" version="1.1" creator="VisuGPX - https://www.visugpx.com">
  <metadata>
    <name>Toutes traces 4x4 Côté Brindas</name>
  </metadata>
  <trk>
    <name><![CDATA[Yzeron - Châteauvieux]]></name>
    <extensions>
      <line xmlns="http://www.topografix.com/GPX/gpx_style/0/2">
        <color>FF00FF</color>
        <width>4</width>
      </line>
    </extensions>
    <trkseg>
      <trkpt lat="45.69945" lon="4.60126">
        <ele>704.887</ele>
        <time>2021-07-04T19:31:03Z</time>
      </trkpt>
      <trkpt lat="45.69945" lon="4.60126">
        <ele>704.887</ele>
        <time>2021-07-04T19:31:03Z</time>
      </trkpt>
      <trkpt lat="45.69942" lon="4.60133">
        <ele>704.842</ele>
        <time>2021-07-04T19:31:06Z</time>
      </trkpt>
      <trkpt lat="45.69938" lon="4.60137">
        <ele>704.826</ele>
        <time>2021-07-04T19:31:08Z</time>
      </trkpt>
      <trkpt lat="45.69933" lon="4.60143">
        <ele>704.908</ele>
        <time>2021-07-04T19:31:10Z</time>
      </trkpt>
      <trkpt lat="45.69931" lon="4.60149">
        <ele>704.995</ele>
        <time>2021-07-04T19:31:11Z</time>
      </trkpt>
      <trkpt lat="45.69923" lon="4.60158">
        <ele>705.015</ele>
        <time>2021-07-04T19:31:12Z</time>
      </trkpt>
      <trkpt lat="45.69917" lon="4.60164">
        <ele>705.122</ele>
        <time>2021-07-04T19:31:13Z</time>
      </trkpt>
      <trkpt lat="45.69913" lon="4.60169">
        <ele>705.312</ele>
        <time>2021-07-04T19:31:14Z</time>
      </trkpt>
      <trkpt lat="45.69906" lon="4.60175">
        <ele>705.693</ele>
        <time>2021-07-04T19:31:16Z</time>
      </trkpt>
      <trkpt lat="45.699" lon="4.60183">
        <ele>705.874</ele>
        <time>2021-07-04T19:31:18Z</time>
      </trkpt>
      <trkpt lat="45.69894" lon="4.60192">
        <ele>706.085</ele>
        <time>2021-07-04T19:31:20Z</time>
      </trkpt>
      <trkpt lat="45.69888" lon="4.60201">
        <ele>706.542</ele>
        <time>2021-07-04T19:31:22Z</time>
      </trkpt>
      <trkpt lat="45.69882" lon="4.60209">
        <ele>707.229</ele>
        <time>2021-07-04T19:31:24Z</time>
      </trkpt>
      <trkpt lat="45.69875" lon="4.60216">
        <ele>708</ele>
        <time>2021-07-04T19:31:26Z</time>
      </trkpt>
      <trkpt lat="45.69871" lon="4.60223">
        <ele>708.92</ele>
        <time>2021-07-04T19:31:28Z</time>
      </trkpt>
      <trkpt lat="45.69868" lon="4.60231">
        <ele>709.808</ele>
        <time>2021-07-04T19:31:31Z</time>
      </trkpt>
      <trkpt lat="45.69863" lon="4.60238">
        <ele>710.259</ele>
        <time>2021-07-04T19:31:33Z</time>
      </trkpt>
      <trkpt lat="45.6986" lon="4.60246">
        <ele>710.629</ele>
        <time>2021-07-04T19:31:35Z</time>
      </trkpt>
      <trkpt lat="45.69858" lon="4.60255">
        <ele>711.086</ele>
        <time>2021-07-04T19:31:38Z</time>
      </trkpt>
      <trkpt lat="45.69857" lon="4.60264">
        <ele>711.356</ele>
        <time>2021-07-04T19:31:40Z</time>
      </trkpt>
      <trkpt lat="45.69858" lon="4.60271">
        <ele>711.747</ele>
        <time>2021-07-04T19:31:42Z</time>
      </trkpt>
      <trkpt lat="45.69859" lon="4.6028">
        <ele>712.668</ele>
        <time>2021-07-04T19:31:45Z</time>
      </trkpt>
      <trkpt lat="45.69859" lon="4.60289">
        <ele>713.549</ele>
        <time>2021-07-04T19:31:48Z</time>
      </trkpt>
      <trkpt lat="45.69859" lon="4.60296">
        <ele>713.976</ele>
        <time>2021-07-04T19:31:51Z</time>
      </trkpt>
      <trkpt lat="45.69859" lon="4.60307">
        <ele>713.989</ele>
        <time>2021-07-04T19:31:54Z</time>
      </trkpt>
      <trkpt lat="45.69858" lon="4.60315">
        <ele>714.006</ele>
        <time>2021-07-04T19:31:56Z</time>
      </trkpt>
      <trkpt lat="45.69858" lon="4.60324">
        <ele>714.226</ele>
        <time>2021-07-04T19:31:58Z</time>
      </trkpt>
      <trkpt lat="45.69857" lon="4.60333">
        <ele>714.308</ele>
        <time>2021-07-04T19:32:00Z</time>
      </trkpt>
      <trkpt lat="45.69857" lon="4.6034">
        <ele>714.225</ele>
        <time>2021-07-04T19:32:02Z</time>
      </trkpt>
      <trkpt lat="45.69857" lon="4.60347">
        <ele>713.775</ele>
        <time>2021-07-04T19:32:05Z</time>
      </trkpt>
      <trkpt lat="45.69856" lon="4.60356">
        <ele>713.252</ele>
        <time>2021-07-04T19:32:09Z</time>
      </trkpt>
      <trkpt lat="45.69856" lon="4.60364">
        <ele>712.762</ele>
        <time>2021-07-04T19:32:12Z</time>
      </trkpt>
      <trkpt lat="45.69856" lon="4.60372">
        <ele>712.233</ele>
        <time>2021-07-04T19:32:14Z</time>
      </trkpt>
      <trkpt lat="45.69856" lon="4.60382">
        <ele>711.754</ele>
        <time>2021-07-04T19:32:16Z</time>
      </trkpt>
      <trkpt lat="45.69857" lon="4.60393">
        <ele>711.335</ele>
        <time>2021-07-04T19:32:18Z</time>
      </trkpt>
      <trkpt lat="45.69854" lon="4.60403">
        <ele>710.232</ele>
        <time>2021-07-04T19:32:44Z</time>
      </trkpt>
      <trkpt lat="45.69854" lon="4.6041">
        <ele>710.231</ele>
        <time>2021-07-04T19:32:52Z</time>
      </trkpt>
      <trkpt lat="45.69853" lon="4.60419">
        <ele>709.661</ele>
        <time>2021-07-04T19:32:56Z</time>
      </trkpt>
      <trkpt lat="45.6985" lon="4.6049">
        <ele>707.107</ele>
        <time>2021-07-04T19:35:26Z</time>
      </trkpt>
      <trkpt lat="45.69851" lon="4.605">
        <ele>707.108</ele>
        <time>2021-07-04T19:35:29Z</time>
      </trkpt>
      <trkpt lat="45.69851" lon="4.60509">
        <ele>707.16</ele>
        <time>2021-07-04T19:35:31Z</time>
      </trkpt>
      <trkpt lat="45.69852" lon="4.60515">
        <ele>707.02</ele>
        <time>2021-07-04T19:35:33Z</time>
      </trkpt>
      <trkpt lat="45.69852" lon="4.60523">
        <ele>706.737</ele>
        <time>2021-07-04T19:35:35Z</time>
      </trkpt>
      <trkpt lat="45.69851" lon="4.60531">
        <ele>706.357</ele>
        <time>2021-07-04T19:35:37Z</time>
      </trkpt>
      <trkpt lat="45.69852" lon="4.60539">
        <ele>705.968</ele>
        <time>2021-07-04T19:35:39Z</time>
      </trkpt>
      <trkpt lat="45.69853" lon="4.6055">
        <ele>705.599</ele>
        <time>2021-07-04T19:35:41Z</time>
      </trkpt>
      <trkpt lat="45.69854" lon="4.6056">
        <ele>705.12</ele>
        <time>2021-07-04T19:35:43Z</time>
      </trkpt>
      <trkpt lat="45.69855" lon="4.60568">
        <ele>704.637</ele>
        <time>2021-07-04T19:35:45Z</time>
      </trkpt>
      <trkpt lat="45.69856" lon="4.60577">
        <ele>704.157</ele>
        <time>2021-07-04T19:35:47Z</time>
      </trkpt>
      <trkpt lat="45.69857" lon="4.60584">
        <ele>703.7</ele>
        <time>2021-07-04T19:35:49Z</time>
      </trkpt>
      <trkpt lat="45.6986" lon="4.6059">
        <ele>703.12</ele>
        <time>2021-07-04T19:35:52Z</time>
      </trkpt>
      <trkpt lat="45.69863" lon="4.60597">
        <ele>702.608</ele>
        <time>2021-07-04T19:35:56Z</time>
      </trkpt>
      <trkpt lat="45.69867" lon="4.60602">
        <ele>702.482</ele>
        <time>2021-07-04T19:36:00Z</time>
      </trkpt>
      <trkpt lat="45.6987" lon="4.60607">
        <ele>702.232</ele>
        <time>2021-07-04T19:36:03Z</time>
      </trkpt>
      <trkpt lat="45.69874" lon="4.60611">
        <ele>701.999</ele>
        <time>2021-07-04T19:36:07Z</time>
      </trkpt>
      <trkpt lat="45.69878" lon="4.60615">
        <ele>701.659</ele>
        <time>2021-07-04T19:36:11Z</time>
      </trkpt>
      <trkpt lat="45.69883" lon="4.60622">
        <ele>701.58</ele>
        <time>2021-07-04T19:36:14Z</time>
      </trkpt>
      <trkpt lat="45.69887" lon="4.60628">
        <ele>701.521</ele>
        <time>2021-07-04T19:36:16Z</time>
      </trkpt>
      <trkpt lat="45.69891" lon="4.60636">
        <ele>701.592</ele>
        <time>2021-07-04T19:36:18Z</time>
      </trkpt>
      <trkpt lat="45.69895" lon="4.60642">
        <ele>701.539</ele>
        <time>2021-07-04T19:36:20Z</time>
      </trkpt>
      <trkpt lat="45.69899" lon="4.6065">
        <ele>701.474</ele>
        <time>2021-07-04T19:36:22Z</time>
      </trkpt>
      <trkpt lat="45.69903" lon="4.6066">
        <ele>701.356</ele>
        <time>2021-07-04T19:36:24Z</time>
      </trkpt>
      <trkpt lat="45.69906" lon="4.60669">
        <ele>701.221</ele>
        <time>2021-07-04T19:36:26Z</time>
      </trkpt>
      <trkpt lat="45.69908" lon="4.60678">
        <ele>701.108</ele>
        <time>2021-07-04T19:36:28Z</time>
      </trkpt>
      <trkpt lat="45.69911" lon="4.60689">
        <ele>701.154</ele>
        <time>2021-07-04T19:36:30Z</time>
      </trkpt>
      <trkpt lat="45.69913" lon="4.60698">
        <ele>701.214</ele>
        <time>2021-07-04T19:36:32Z</time>
      </trkpt>
      <trkpt lat="45.69915" lon="4.60704">
        <ele>701.211</ele>
        <time>2021-07-04T19:36:33Z</time>
      </trkpt>
      <trkpt lat="45.69917" lon="4.60711">
        <ele>700.831</ele>
        <time>2021-07-04T19:36:39Z</time>
      </trkpt>
      <trkpt lat="45.69919" lon="4.60719">
        <ele>700.912</ele>
        <time>2021-07-04T19:36:42Z</time>
      </trkpt>
      <trkpt lat="45.69921" lon="4.60727">
        <ele>701.043</ele>
        <time>2021-07-04T19:36:44Z</time>
      </trkpt>
      <trkpt lat="45.69923" lon="4.60738">
        <ele>701.274</ele>
        <time>2021-07-04T19:36:46Z</time>
      </trkpt>
      <trkpt lat="45.69925" lon="4.60746">
        <ele>701.751</ele>
        <time>2021-07-04T19:36:49Z</time>
      </trkpt>
      <trkpt lat="45.69925" lon="4.60754">
        <ele>702.015</ele>
        <time>2021-07-04T19:36:51Z</time>
      </trkpt>
      <trkpt lat="45.69925" lon="4.60763">
        <ele>702.465</ele>
        <time>2021-07-04T19:36:54Z</time>
      </trkpt>
      <trkpt lat="45.69924" lon="4.60772">
        <ele>702.611</ele>
        <time>2021-07-04T19:36:57Z</time>
      </trkpt>
      <trkpt lat="45.69924" lon="4.60779">
        <ele>702.808</ele>
        <time>2021-07-04T19:36:59Z</time>
      </trkpt>
      <trkpt lat="45.69923" lon="4.60789">
        <ele>703.138</ele>
        <time>2021-07-04T19:37:01Z</time>
      </trkpt>
      <trkpt lat="45.69922" lon="4.60799">
        <ele>703.658</ele>
        <time>2021-07-04T19:37:04Z</time>
      </trkpt>
      <trkpt lat="45.69921" lon="4.60805">
        <ele>703.895</ele>
        <time>2021-07-04T19:37:07Z</time>
      </trkpt>
      <trkpt lat="45.69918" lon="4.60814">
        <ele>703.845</ele>
        <time>2021-07-04T19:37:10Z</time>
      </trkpt>
      <trkpt lat="45.69917" lon="4.60821">
        <ele>703.926</ele>
        <time>2021-07-04T19:37:12Z</time>
      </trkpt>
      <trkpt lat="45.69916" lon="4.60829">
        <ele>704.437</ele>
        <time>2021-07-04T19:37:14Z</time>
      </trkpt>
      <trkpt lat="45.69915" lon="4.60837">
        <ele>705.128</ele>
        <time>2021-07-04T19:37:17Z</time>
      </trkpt>
      <trkpt lat="45.69913" lon="4.60844">
        <ele>705.475</ele>
        <time>2021-07-04T19:37:20Z</time>
      </trkpt>
      <trkpt lat="45.69911" lon="4.6085">
        <ele>705.544</ele>
        <time>2021-07-04T19:37:22Z</time>
      </trkpt>
      <trkpt lat="45.69909" lon="4.60856">
        <ele>705.705</ele>
        <time>2021-07-04T19:37:24Z</time>
      </trkpt>
      <trkpt lat="45.69906" lon="4.60863">
        <ele>706.015</ele>
        <time>2021-07-04T19:37:26Z</time>
      </trkpt>
      <trkpt lat="45.69904" lon="4.6087">
        <ele>706.308</ele>
        <time>2021-07-04T19:37:28Z</time>
      </trkpt>
      <trkpt lat="45.69901" lon="4.6088">
        <ele>706.791</ele>
        <time>2021-07-04T19:37:30Z</time>
      </trkpt>
      <trkpt lat="45.69898" lon="4.60889">
        <ele>707.011</ele>
        <time>2021-07-04T19:37:32Z</time>
      </trkpt>
      <trkpt lat="45.69897" lon="4.60896">
        <ele>707.378</ele>
        <time>2021-07-04T19:37:34Z</time>
      </trkpt>
      <trkpt lat="45.69894" lon="4.60903">
        <ele>707.648</ele>
        <time>2021-07-04T19:37:36Z</time>
      </trkpt>
      <trkpt lat="45.69892" lon="4.60911">
        <ele>708.319</ele>
        <time>2021-07-04T19:37:39Z</time>
      </trkpt>
      <trkpt lat="45.6989" lon="4.60918">
        <ele>708.87</ele>
        <time>2021-07-04T19:37:41Z</time>
      </trkpt>
      <trkpt lat="45.69887" lon="4.60934">
        <ele>709.361</ele>
        <time>2021-07-04T19:38:06Z</time>
      </trkpt>
      <trkpt lat="45.69885" lon="4.60942">
        <ele>709.678</ele>
        <time>2021-07-04T19:38:09Z</time>
      </trkpt>
      <trkpt lat="45.69884" lon="4.6095">
        <ele>710.211</ele>
        <time>2021-07-04T19:38:12Z</time>
      </trkpt>
      <trkpt lat="45.69881" lon="4.60957">
        <ele>711.221</ele>
        <time>2021-07-04T19:38:16Z</time>
      </trkpt>
      <trkpt lat="45.69881" lon="4.60964">
        <ele>711.903</ele>
        <time>2021-07-04T19:38:21Z</time>
      </trkpt>
      <trkpt lat="45.6988" lon="4.60973">
        <ele>712.408</ele>
        <time>2021-07-04T19:38:25Z</time>
      </trkpt>
      <trkpt lat="45.6988" lon="4.6098">
        <ele>712.928</ele>
        <time>2021-07-04T19:38:28Z</time>
      </trkpt>
      <trkpt lat="45.69881" lon="4.60988">
        <ele>713.528</ele>
        <time>2021-07-04T19:38:31Z</time>
      </trkpt>
      <trkpt lat="45.69881" lon="4.60996">
        <ele>714.425</ele>
        <time>2021-07-04T19:38:34Z</time>
      </trkpt>
      <trkpt lat="45.69882" lon="4.61006">
        <ele>715.185</ele>
        <time>2021-07-04T19:38:39Z</time>
      </trkpt>
      <trkpt lat="45.69884" lon="4.61013">
        <ele>715.356</ele>
        <time>2021-07-04T19:38:41Z</time>
      </trkpt>
      <trkpt lat="45.69884" lon="4.6102">
        <ele>715.587</ele>
        <time>2021-07-04T19:38:42Z</time>
      </trkpt>
      <trkpt lat="45.69886" lon="4.61028">
        <ele>715.878</ele>
        <time>2021-07-04T19:38:43Z</time>
      </trkpt>
      <trkpt lat="45.69887" lon="4.61034">
        <ele>716.155</ele>
        <time>2021-07-04T19:38:44Z</time>
      </trkpt>
      <trkpt lat="45.6989" lon="4.61046">
        <ele>716.889</ele>
        <time>2021-07-04T19:38:46Z</time>
      </trkpt>
      <trkpt lat="45.69892" lon="4.61055">
        <ele>717.206</ele>
        <time>2021-07-04T19:38:48Z</time>
      </trkpt>
      <trkpt lat="45.69895" lon="4.61064">
        <ele>717.426</ele>
        <time>2021-07-04T19:38:50Z</time>
      </trkpt>
      <trkpt lat="45.699" lon="4.61074">
        <ele>717.608</ele>
        <time>2021-07-04T19:38:52Z</time>
      </trkpt>
      <trkpt lat="45.69901" lon="4.61081">
        <ele>718.075</ele>
        <time>2021-07-04T19:38:54Z</time>
      </trkpt>
      <trkpt lat="45.69903" lon="4.61088">
        <ele>718.345</ele>
        <time>2021-07-04T19:38:59Z</time>
      </trkpt>
      <trkpt lat="45.69905" lon="4.61095">
        <ele>718.572</ele>
        <time>2021-07-04T19:39:05Z</time>
      </trkpt>
      <trkpt lat="45.69907" lon="4.61101">
        <ele>718.882</ele>
        <time>2021-07-04T19:39:08Z</time>
      </trkpt>
      <trkpt lat="45.69909" lon="4.61108">
        <ele>718.873</ele>
        <time>2021-07-04T19:39:11Z</time>
      </trkpt>
      <trkpt lat="45.69911" lon="4.61116">
        <ele>719.174</ele>
        <time>2021-07-04T19:39:14Z</time>
      </trkpt>
      <trkpt lat="45.6991" lon="4.61124">
        <ele>719.335</ele>
        <time>2021-07-04T19:39:18Z</time>
      </trkpt>
      <trkpt lat="45.69911" lon="4.61132">
        <ele>719.252</ele>
        <time>2021-07-04T19:39:22Z</time>
      </trkpt>
      <trkpt lat="45.6991" lon="4.61141">
        <ele>719.181</ele>
        <time>2021-07-04T19:39:25Z</time>
      </trkpt>
      <trkpt lat="45.6991" lon="4.6115">
        <ele>718.861</ele>
        <time>2021-07-04T19:39:29Z</time>
      </trkpt>
      <trkpt lat="45.69909" lon="4.61158">
        <ele>718.717</ele>
        <time>2021-07-04T19:39:32Z</time>
      </trkpt>
      <trkpt lat="45.69906" lon="4.61168">
        <ele>718.408</ele>
        <time>2021-07-04T19:39:35Z</time>
      </trkpt>
      <trkpt lat="45.69903" lon="4.61173">
        <ele>718.245</ele>
        <time>2021-07-04T19:39:36Z</time>
      </trkpt>
      <trkpt lat="45.69898" lon="4.61181">
        <ele>717.815</ele>
        <time>2021-07-04T19:39:38Z</time>
      </trkpt>
      <trkpt lat="45.69893" lon="4.61188">
        <ele>717.422</ele>
        <time>2021-07-04T19:39:40Z</time>
      </trkpt>
      <trkpt lat="45.69889" lon="4.61194">
        <ele>717.132</ele>
        <time>2021-07-04T19:39:42Z</time>
      </trkpt>
      <trkpt lat="45.69886" lon="4.61199">
        <ele>716.923</ele>
        <time>2021-07-04T19:39:44Z</time>
      </trkpt>
      <trkpt lat="45.69883" lon="4.61207">
        <ele>716.884</ele>
        <time>2021-07-04T19:39:47Z</time>
      </trkpt>
      <trkpt lat="45.6988" lon="4.61213">
        <ele>716.895</ele>
        <time>2021-07-04T19:39:49Z</time>
      </trkpt>
      <trkpt lat="45.69875" lon="4.61218">
        <ele>716.872</ele>
        <time>2021-07-04T19:39:52Z</time>
      </trkpt>
      <trkpt lat="45.6987" lon="4.61225">
        <ele>716.862</ele>
        <time>2021-07-04T19:39:55Z</time>
      </trkpt>
      <trkpt lat="45.69865" lon="4.61231">
        <ele>716.983</ele>
        <time>2021-07-04T19:39:58Z</time>
      </trkpt>
      <trkpt lat="45.6986" lon="4.61237">
        <ele>716.811</ele>
        <time>2021-07-04T19:40:02Z</time>
      </trkpt>
      <trkpt lat="45.69854" lon="4.61242">
        <ele>716.508</ele>
        <time>2021-07-04T19:40:05Z</time>
      </trkpt>
      <trkpt lat="45.6985" lon="4.61247">
        <ele>716.293</ele>
        <time>2021-07-04T19:40:07Z</time>
      </trkpt>
      <trkpt lat="45.69843" lon="4.61251">
        <ele>715.793</ele>
        <time>2021-07-04T19:40:10Z</time>
      </trkpt>
      <trkpt lat="45.69839" lon="4.61254">
        <ele>715.32</ele>
        <time>2021-07-04T19:40:12Z</time>
      </trkpt>
      <trkpt lat="45.69835" lon="4.61257">
        <ele>714.95</ele>
        <time>2021-07-04T19:40:14Z</time>
      </trkpt>
      <trkpt lat="45.6983" lon="4.6126">
        <ele>714.651</ele>
        <time>2021-07-04T19:40:16Z</time>
      </trkpt>
      <trkpt lat="45.69825" lon="4.61265">
        <ele>714.432</ele>
        <time>2021-07-04T19:40:18Z</time>
      </trkpt>
      <trkpt lat="45.6982" lon="4.61272">
        <ele>714.493</ele>
        <time>2021-07-04T19:40:20Z</time>
      </trkpt>
      <trkpt lat="45.69816" lon="4.61279">
        <ele>714.59</ele>
        <time>2021-07-04T19:40:22Z</time>
      </trkpt>
      <trkpt lat="45.69812" lon="4.61285">
        <ele>714.747</ele>
        <time>2021-07-04T19:40:24Z</time>
      </trkpt>
      <trkpt lat="45.69808" lon="4.6129">
        <ele>715.029</ele>
        <time>2021-07-04T19:40:26Z</time>
      </trkpt>
      <trkpt lat="45.69805" lon="4.61296">
        <ele>715.721</ele>
        <time>2021-07-04T19:40:30Z</time>
      </trkpt>
      <trkpt lat="45.69804" lon="4.61302">
        <ele>716.408</ele>
        <time>2021-07-04T19:40:34Z</time>
      </trkpt>
      <trkpt lat="45.69801" lon="4.61308">
        <ele>716.681</ele>
        <time>2021-07-04T19:40:37Z</time>
      </trkpt>
      <trkpt lat="45.69799" lon="4.61318">
        <ele>716.811</ele>
        <time>2021-07-04T19:40:40Z</time>
      </trkpt>
      <trkpt lat="45.69799" lon="4.61325">
        <ele>717.188</ele>
        <time>2021-07-04T19:40:42Z</time>
      </trkpt>
      <trkpt lat="45.69798" lon="4.61332">
        <ele>717.568</ele>
        <time>2021-07-04T19:40:44Z</time>
      </trkpt>
      <trkpt lat="45.69797" lon="4.61341">
        <ele>717.939</ele>
        <time>2021-07-04T19:40:46Z</time>
      </trkpt>
      <trkpt lat="45.69798" lon="4.6135">
        <ele>718.38</ele>
        <time>2021-07-04T19:40:48Z</time>
      </trkpt>
      <trkpt lat="45.69797" lon="4.61358">
        <ele>718.671</ele>
        <time>2021-07-04T19:40:50Z</time>
      </trkpt>
      <trkpt lat="45.69797" lon="4.61365">
        <ele>719.118</ele>
        <time>2021-07-04T19:40:52Z</time>
      </trkpt>
      <trkpt lat="45.69798" lon="4.61374">
        <ele>719.738</ele>
        <time>2021-07-04T19:40:54Z</time>
      </trkpt>
      <trkpt lat="45.69799" lon="4.61382">
        <ele>720.47</ele>
        <time>2021-07-04T19:40:56Z</time>
      </trkpt>
      <trkpt lat="45.69799" lon="4.6139">
        <ele>721.017</ele>
        <time>2021-07-04T19:40:58Z</time>
      </trkpt>
      <trkpt lat="45.69801" lon="4.61397">
        <ele>721.408</ele>
        <time>2021-07-04T19:41:00Z</time>
      </trkpt>
      <trkpt lat="45.69802" lon="4.61405">
        <ele>721.77</ele>
        <time>2021-07-04T19:41:02Z</time>
      </trkpt>
      <trkpt lat="45.69802" lon="4.61412">
        <ele>721.98</ele>
        <time>2021-07-04T19:41:04Z</time>
      </trkpt>
      <trkpt lat="45.69803" lon="4.61421">
        <ele>722.097</ele>
        <time>2021-07-04T19:41:06Z</time>
      </trkpt>
      <trkpt lat="45.69804" lon="4.61429">
        <ele>721.957</ele>
        <time>2021-07-04T19:41:08Z</time>
      </trkpt>
      <trkpt lat="45.69806" lon="4.61438">
        <ele>721.848</ele>
        <time>2021-07-04T19:41:10Z</time>
      </trkpt>
      <trkpt lat="45.69805" lon="4.61446">
        <ele>721.739</ele>
        <time>2021-07-04T19:41:12Z</time>
      </trkpt>
      <trkpt lat="45.69806" lon="4.61454">
        <ele>721.79</ele>
        <time>2021-07-04T19:41:14Z</time>
      </trkpt>
      <trkpt lat="45.69802" lon="4.61459">
        <ele>721.767</ele>
        <time>2021-07-04T19:41:15Z</time>
      </trkpt>
      <trkpt lat="45.69806" lon="4.61471">
        <ele>721.524</ele>
        <time>2021-07-04T19:41:17Z</time>
      </trkpt>
      <trkpt lat="45.69809" lon="4.61483">
        <ele>721.104</ele>
        <time>2021-07-04T19:41:19Z</time>
      </trkpt>
      <trkpt lat="45.69807" lon="4.61496">
        <ele>721.014</ele>
        <time>2021-07-04T19:41:20Z</time>
      </trkpt>
      <trkpt lat="45.69805" lon="4.61506">
        <ele>720.808</ele>
        <time>2021-07-04T19:41:21Z</time>
      </trkpt>
      <trkpt lat="45.69803" lon="4.61516">
        <ele>720.589</ele>
        <time>2021-07-04T19:41:22Z</time>
      </trkpt>
      <trkpt lat="45.69805" lon="4.61525">
        <ele>720.389</ele>
        <time>2021-07-04T19:41:23Z</time>
      </trkpt>
      <trkpt lat="45.69805" lon="4.61536">
        <ele>720.136</ele>
        <time>2021-07-04T19:41:24Z</time>
      </trkpt>
      <trkpt lat="45.69806" lon="4.61546">
        <ele>719.886</ele>
        <time>2021-07-04T19:41:25Z</time>
      </trkpt>
      <trkpt lat="45.69806" lon="4.61555">
        <ele>719.687</ele>
        <time>2021-07-04T19:41:26Z</time>
      </trkpt>
      <trkpt lat="45.69806" lon="4.61566">
        <ele>719.668</ele>
        <time>2021-07-04T19:41:27Z</time>
      </trkpt>
      <trkpt lat="45.69805" lon="4.61574">
        <ele>719.579</ele>
        <time>2021-07-04T19:41:28Z</time>
      </trkpt>
      <trkpt lat="45.69805" lon="4.61583">
        <ele>719.486</ele>
        <time>2021-07-04T19:41:29Z</time>
      </trkpt>
      <trkpt lat="45.69806" lon="4.61591">
        <ele>719.458</ele>
        <time>2021-07-04T19:41:30Z</time>
      </trkpt>
      <trkpt lat="45.69807" lon="4.616">
        <ele>719.452</ele>
        <time>2021-07-04T19:41:31Z</time>
      </trkpt>
      <trkpt lat="45.69807" lon="4.61611">
        <ele>719.417</ele>
        <time>2021-07-04T19:41:32Z</time>
      </trkpt>
      <trkpt lat="45.69809" lon="4.61619">
        <ele>719.508</ele>
        <time>2021-07-04T19:41:32Z</time>
      </trkpt>
      <trkpt lat="45.6981" lon="4.61627">
        <ele>719.642</ele>
        <time>2021-07-04T19:41:33Z</time>
      </trkpt>
      <trkpt lat="45.69811" lon="4.61635">
        <ele>719.832</ele>
        <time>2021-07-04T19:41:34Z</time>
      </trkpt>
      <trkpt lat="45.69813" lon="4.61644">
        <ele>720.129</ele>
        <time>2021-07-04T19:41:36Z</time>
      </trkpt>
      <trkpt lat="45.69815" lon="4.61655">
        <ele>720.429</ele>
        <time>2021-07-04T19:41:38Z</time>
      </trkpt>
      <trkpt lat="45.69818" lon="4.61664">
        <ele>720.89</ele>
        <time>2021-07-04T19:41:40Z</time>
      </trkpt>
      <trkpt lat="45.69821" lon="4.61672">
        <ele>721.491</ele>
        <time>2021-07-04T19:41:42Z</time>
      </trkpt>
      <trkpt lat="45.69824" lon="4.61678">
        <ele>721.992</ele>
        <time>2021-07-04T19:41:44Z</time>
      </trkpt>
      <trkpt lat="45.69826" lon="4.61683">
        <ele>722.319</ele>
        <time>2021-07-04T19:41:46Z</time>
      </trkpt>
      <trkpt lat="45.69829" lon="4.61689">
        <ele>723.096</ele>
        <time>2021-07-04T19:41:49Z</time>
      </trkpt>
      <trkpt lat="45.69833" lon="4.61695">
        <ele>723.631</ele>
        <time>2021-07-04T19:41:52Z</time>
      </trkpt>
      <trkpt lat="45.69836" lon="4.61703">
        <ele>724.224</ele>
        <time>2021-07-04T19:42:22Z</time>
      </trkpt>
      <trkpt lat="45.6984" lon="4.61708">
        <ele>724.308</ele>
        <time>2021-07-04T19:42:25Z</time>
      </trkpt>
      <trkpt lat="45.69844" lon="4.61714">
        <ele>724.786</ele>
        <time>2021-07-04T19:42:28Z</time>
      </trkpt>
      <trkpt lat="45.69849" lon="4.61717">
        <ele>725.286</ele>
        <time>2021-07-04T19:42:31Z</time>
      </trkpt>
      <trkpt lat="45.69853" lon="4.61721">
        <ele>725.763</ele>
        <time>2021-07-04T19:42:34Z</time>
      </trkpt>
      <trkpt lat="45.69858" lon="4.61725">
        <ele>726.153</ele>
        <time>2021-07-04T19:42:36Z</time>
      </trkpt>
      <trkpt lat="45.69862" lon="4.61728">
        <ele>726.664</ele>
        <time>2021-07-04T19:42:38Z</time>
      </trkpt>
      <trkpt lat="45.69866" lon="4.61731">
        <ele>727.195</ele>
        <time>2021-07-04T19:42:40Z</time>
      </trkpt>
      <trkpt lat="45.69871" lon="4.61735">
        <ele>727.766</ele>
        <time>2021-07-04T19:42:44Z</time>
      </trkpt>
      <trkpt lat="45.69877" lon="4.61739">
        <ele>727.883</ele>
        <time>2021-07-04T19:42:48Z</time>
      </trkpt>
      <trkpt lat="45.69883" lon="4.61744">
        <ele>728.181</ele>
        <time>2021-07-04T19:42:50Z</time>
      </trkpt>
      <trkpt lat="45.69888" lon="4.61747">
        <ele>728.661</ele>
        <time>2021-07-04T19:42:52Z</time>
      </trkpt>
      <trkpt lat="45.69893" lon="4.61749">
        <ele>728.917</ele>
        <time>2021-07-04T19:42:55Z</time>
      </trkpt>
      <trkpt lat="45.69899" lon="4.61754">
        <ele>728.908</ele>
        <time>2021-07-04T19:42:58Z</time>
      </trkpt>
      <trkpt lat="45.69904" lon="4.61759">
        <ele>729.035</ele>
        <time>2021-07-04T19:43:00Z</time>
      </trkpt>
      <trkpt lat="45.69909" lon="4.61763">
        <ele>729.295</ele>
        <time>2021-07-04T19:43:02Z</time>
      </trkpt>
      <trkpt lat="45.69914" lon="4.61768">
        <ele>729.412</ele>
        <time>2021-07-04T19:43:04Z</time>
      </trkpt>
      <trkpt lat="45.6992" lon="4.61773">
        <ele>729.762</ele>
        <time>2021-07-04T19:43:06Z</time>
      </trkpt>
      <trkpt lat="45.69925" lon="4.61778">
        <ele>729.963</ele>
        <time>2021-07-04T19:43:08Z</time>
      </trkpt>
      <trkpt lat="45.6993" lon="4.61785">
        <ele>730.114</ele>
        <time>2021-07-04T19:43:10Z</time>
      </trkpt>
      <trkpt lat="45.69934" lon="4.61791">
        <ele>730.195</ele>
        <time>2021-07-04T19:43:12Z</time>
      </trkpt>
      <trkpt lat="45.69936" lon="4.61801">
        <ele>729.972</ele>
        <time>2021-07-04T19:43:14Z</time>
      </trkpt>
      <trkpt lat="45.69937" lon="4.61807">
        <ele>729.871</ele>
        <time>2021-07-04T19:43:15Z</time>
      </trkpt>
      <trkpt lat="45.69939" lon="4.61814">
        <ele>728.141</ele>
        <time>2021-07-04T19:43:20Z</time>
      </trkpt>
      <trkpt lat="45.6994" lon="4.61822">
        <ele>727.615</ele>
        <time>2021-07-04T19:43:23Z</time>
      </trkpt>
      <trkpt lat="45.69944" lon="4.61833">
        <ele>727.608</ele>
        <time>2021-07-04T19:43:25Z</time>
      </trkpt>
      <trkpt lat="45.69947" lon="4.61842">
        <ele>727.814</ele>
        <time>2021-07-04T19:43:26Z</time>
      </trkpt>
      <trkpt lat="45.69954" lon="4.61853">
        <ele>728.154</ele>
        <time>2021-07-04T19:43:27Z</time>
      </trkpt>
      <trkpt lat="45.69959" lon="4.61865">
        <ele>728.661</ele>
        <time>2021-07-04T19:43:28Z</time>
      </trkpt>
      <trkpt lat="45.69965" lon="4.61874">
        <ele>729.141</ele>
        <time>2021-07-04T19:43:29Z</time>
      </trkpt>
      <trkpt lat="45.6997" lon="4.61882">
        <ele>729.372</ele>
        <time>2021-07-04T19:43:30Z</time>
      </trkpt>
      <trkpt lat="45.69973" lon="4.61888">
        <ele>729.393</ele>
        <time>2021-07-04T19:43:31Z</time>
      </trkpt>
      <trkpt lat="45.69976" lon="4.61893">
        <ele>729.234</ele>
        <time>2021-07-04T19:43:32Z</time>
      </trkpt>
      <trkpt lat="45.69981" lon="4.61902">
        <ele>728.371</ele>
        <time>2021-07-04T19:43:34Z</time>
      </trkpt>
      <trkpt lat="45.69986" lon="4.61913">
        <ele>727.716</ele>
        <time>2021-07-04T19:43:36Z</time>
      </trkpt>
      <trkpt lat="45.6999" lon="4.6192">
        <ele>727.376</ele>
        <time>2021-07-04T19:43:38Z</time>
      </trkpt>
      <trkpt lat="45.69994" lon="4.61923">
        <ele>727.013</ele>
        <time>2021-07-04T19:43:40Z</time>
      </trkpt>
      <trkpt lat="45.70002" lon="4.6192">
        <ele>726.808</ele>
        <time>2021-07-04T19:43:43Z</time>
      </trkpt>
      <trkpt lat="45.70009" lon="4.61915">
        <ele>727.568</ele>
        <time>2021-07-04T19:43:45Z</time>
      </trkpt>
      <trkpt lat="45.70015" lon="4.61914">
        <ele>728.468</ele>
        <time>2021-07-04T19:43:47Z</time>
      </trkpt>
      <trkpt lat="45.70019" lon="4.61917">
        <ele>728.945</ele>
        <time>2021-07-04T19:43:49Z</time>
      </trkpt>
      <trkpt lat="45.70024" lon="4.61924">
        <ele>729.165</ele>
        <time>2021-07-04T19:43:51Z</time>
      </trkpt>
      <trkpt lat="45.7003" lon="4.61935">
        <ele>729.276</ele>
        <time>2021-07-04T19:43:53Z</time>
      </trkpt>
      <trkpt lat="45.70034" lon="4.61941">
        <ele>729.157</ele>
        <time>2021-07-04T19:43:54Z</time>
      </trkpt>
      <trkpt lat="45.70038" lon="4.61948">
        <ele>729.068</ele>
        <time>2021-07-04T19:43:55Z</time>
      </trkpt>
      <trkpt lat="45.70042" lon="4.61954">
        <ele>728.815</ele>
        <time>2021-07-04T19:43:56Z</time>
      </trkpt>
      <trkpt lat="45.70046" lon="4.61961">
        <ele>728.689</ele>
        <time>2021-07-04T19:43:57Z</time>
      </trkpt>
      <trkpt lat="45.7005" lon="4.61968">
        <ele>728.406</ele>
        <time>2021-07-04T19:43:58Z</time>
      </trkpt>
      <trkpt lat="45.70054" lon="4.61973">
        <ele>728.126</ele>
        <time>2021-07-04T19:43:59Z</time>
      </trkpt>
      <trkpt lat="45.70056" lon="4.61979">
        <ele>727.808</ele>
        <time>2021-07-04T19:44:00Z</time>
      </trkpt>
      <trkpt lat="45.70061" lon="4.61986">
        <ele>727.535</ele>
        <time>2021-07-04T19:44:01Z</time>
      </trkpt>
      <trkpt lat="45.70065" lon="4.61993">
        <ele>727.275</ele>
        <time>2021-07-04T19:44:02Z</time>
      </trkpt>
      <trkpt lat="45.70068" lon="4.61999">
        <ele>726.982</ele>
        <time>2021-07-04T19:44:03Z</time>
      </trkpt>
      <trkpt lat="45.70072" lon="4.62004">
        <ele>726.792</ele>
        <time>2021-07-04T19:44:04Z</time>
      </trkpt>
      <trkpt lat="45.70075" lon="4.62008">
        <ele>726.493</ele>
        <time>2021-07-04T19:44:05Z</time>
      </trkpt>
      <trkpt lat="45.70078" lon="4.62012">
        <ele>726.224</ele>
        <time>2021-07-04T19:44:06Z</time>
      </trkpt>
      <trkpt lat="45.70082" lon="4.62017">
        <ele>726.065</ele>
        <time>2021-07-04T19:44:07Z</time>
      </trkpt>
      <trkpt lat="45.70077" lon="4.62012">
        <ele>725.272</ele>
        <time>2021-07-04T19:44:14Z</time>
      </trkpt>
    </trkseg>
  </trk>
</gpx>